Time;durP1;ratioP1;P1;durP2;ratioP2;P2;SDS_P1;SDS_P2;PMS_P1;PMS_P2;Temp;Humidity;BMP_temperature;BMP_pressure;BME280_temperature;BME280_humidity;BME280_pressure;Samples;Min_cycle;Max_cycle;Signal;HPM_P1;HPM_P2
2021/09/13 00:01:24;;;;;;;8.20;5.30;;;15.30;99.90;;;;;;5002658;28;20050;-68
2021/09/13 00:03:52;;;;;;;9.52;5.60;;;15.30;99.90;;;;;;5021898;28;20064;-68
2021/09/13 00:06:21;;;;;;;8.77;6.03;;;15.20;99.90;;;;;;5028895;28;20068;-68
2021/09/13 00:08:48;;;;;;;9.90;5.55;;;15.20;99.90;;;;;;5021351;28;20041;-68
2021/09/13 00:11:15;;;;;;;9.65;5.53;;;15.20;99.90;;;;;;5032914;28;20034;-68
2021/09/13 00:13:43;;;;;;;9.43;5.13;;;15.20;99.90;;;;;;5022537;28;20073;-68
2021/09/13 00:16:11;;;;;;;10.30;5.43;;;15.10;99.90;;;;;;5025817;28;20419;-68
2021/09/13 00:18:40;;;;;;;7.63;5.07;;;15.10;99.90;;;;;;5028647;28;20679;-68
2021/09/13 00:21:09;;;;;;;8.55;5.05;;;15.10;99.90;;;;;;5027665;28;20037;-68
2021/09/13 00:23:37;;;;;;;7.32;5.32;;;15.00;99.90;;;;;;5019214;28;20152;-68
2021/09/13 00:26:05;;;;;;;8.05;5.53;;;15.00;99.90;;;;;;5025479;28;20504;-68
2021/09/13 00:28:33;;;;;;;13.60;5.55;;;15.00;99.90;;;;;;5032478;28;20075;-68
2021/09/13 00:31:05;;;;;;;8.77;5.38;;;15.00;99.90;;;;;;5031973;28;20072;-68
2021/09/13 00:33:33;;;;;;;8.65;5.50;;;14.90;99.90;;;;;;5029777;28;20128;-68
2021/09/13 00:36:02;;;;;;;10.30;5.90;;;14.90;99.90;;;;;;5031065;28;20132;-68
2021/09/13 00:38:30;;;;;;;7.15;5.22;;;14.90;99.90;;;;;;5031221;28;20091;-68
2021/09/13 00:40:58;;;;;;;7.95;5.20;;;14.90;99.90;;;;;;5031036;28;20076;-68
2021/09/13 00:43:26;;;;;;;9.30;5.38;;;14.90;99.90;;;;;;4993539;28;20191;-68
2021/09/13 00:45:54;;;;;;;6.93;5.13;;;14.90;99.90;;;;;;5027246;28;20064;-68
2021/09/13 00:48:24;;;;;;;9.00;4.90;;;14.80;99.90;;;;;;5029510;28;20558;-68
2021/09/13 00:50:51;;;;;;;9.15;4.88;;;14.80;99.90;;;;;;5030425;28;20050;-68
2021/09/13 00:53:19;;;;;;;7.50;5.43;;;14.70;99.90;;;;;;5026442;28;20064;-68
2021/09/13 00:55:55;;;;;;;9.10;4.93;;;14.80;99.90;;;;;;5025548;28;20053;-68
2021/09/13 00:58:26;;;;;;;8.63;5.20;;;14.70;99.90;;;;;;5024169;28;20049;-69
2021/09/13 01:01:03;;;;;;;8.68;4.82;;;14.80;99.90;;;;;;5029392;28;20464;-68
2021/09/13 01:03:32;;;;;;;7.43;5.63;;;14.80;99.90;;;;;;5030098;28;20056;-68
2021/09/13 01:06:00;;;;;;;10.88;5.57;;;14.80;99.90;;;;;;5030939;28;20033;-68
2021/09/13 01:08:28;;;;;;;10.15;4.75;;;14.70;99.90;;;;;;5028843;28;20131;-68
2021/09/13 01:10:56;;;;;;;8.75;5.45;;;14.70;99.90;;;;;;5038804;28;20346;-68
2021/09/13 01:13:23;;;;;;;6.80;5.18;;;14.70;99.90;;;;;;5030659;28;20042;-68
2021/09/13 01:15:51;;;;;;;7.70;5.38;;;14.70;99.90;;;;;;5028972;28;20485;-68
2021/09/13 01:18:19;;;;;;;7.55;5.55;;;14.70;99.90;;;;;;5019526;28;20037;-68
2021/09/13 01:20:47;;;;;;;7.55;5.38;;;14.70;99.90;;;;;;5028672;28;20518;-68
2021/09/13 01:23:30;;;;;;;8.50;5.45;;;14.70;99.90;;;;;;5027449;28;20044;-68
2021/09/13 01:26:12;;;;;;;9.00;5.90;;;14.70;99.90;;;;;;5017116;28;20037;-68
2021/09/13 01:28:40;;;;;;;10.60;6.07;;;14.70;99.90;;;;;;5028920;28;20069;-68
2021/09/13 01:31:10;;;;;;;7.65;5.68;;;14.70;99.90;;;;;;5028994;28;20072;-68
2021/09/13 01:33:43;;;;;;;8.85;6.15;;;14.60;99.90;;;;;;5030569;28;20471;-68
2021/09/13 01:36:17;;;;;;;9.80;5.60;;;14.60;99.90;;;;;;5028601;28;20041;-68
2021/09/13 01:38:44;;;;;;;9.57;5.60;;;14.60;99.90;;;;;;5013271;28;20053;-68
2021/09/13 01:41:12;;;;;;;7.88;5.55;;;14.60;99.90;;;;;;5028099;28;20037;-68
2021/09/13 01:43:40;;;;;;;7.43;5.50;;;14.50;99.90;;;;;;5030140;28;20100;-68
2021/09/13 01:46:08;;;;;;;11.65;6.15;;;14.50;99.90;;;;;;5023955;28;20511;-68
2021/09/13 01:48:42;;;;;;;8.63;5.78;;;14.50;99.90;;;;;;5026509;28;20056;-68
2021/09/13 01:51:11;;;;;;;8.95;6.22;;;14.40;99.90;;;;;;5028718;28;20044;-68
2021/09/13 01:53:38;;;;;;;7.47;5.80;;;14.40;99.90;;;;;;5030382;28;20073;-68
2021/09/13 01:56:07;;;;;;;8.35;5.40;;;14.40;99.90;;;;;;5028115;28;20042;-68
2021/09/13 01:58:34;;;;;;;7.10;5.20;;;14.40;99.90;;;;;;5028200;28;20045;-68
2021/09/13 02:01:03;;;;;;;8.35;5.80;;;14.40;99.90;;;;;;5028171;28;20367;-68
2021/09/13 02:03:36;;;;;;;7.32;5.43;;;14.40;99.90;;;;;;5010586;28;20092;-68
2021/09/13 02:06:04;;;;;;;7.90;4.93;;;14.30;99.90;;;;;;5027714;28;20128;-69
2021/09/13 02:08:31;;;;;;;8.30;5.40;;;14.30;99.90;;;;;;5029455;28;20045;-68
2021/09/13 02:11:00;;;;;;;9.68;5.93;;;14.30;99.90;;;;;;5037878;28;20029;-68
2021/09/13 02:13:28;;;;;;;8.45;5.18;;;14.30;99.90;;;;;;5027595;28;20045;-68
2021/09/13 02:15:56;;;;;;;7.82;5.22;;;14.20;99.90;;;;;;5024152;28;20044;-68
2021/09/13 02:18:25;;;;;;;7.75;5.78;;;14.20;99.90;;;;;;5016312;28;20116;-69
2021/09/13 02:20:55;;;;;;;6.07;4.93;;;14.20;99.90;;;;;;5027821;28;20045;-67
2021/09/13 02:23:23;;;;;;;8.93;6.07;;;14.20;99.90;;;;;;5026599;28;20080;-68
2021/09/13 02:25:53;;;;;;;8.18;5.13;;;14.10;99.90;;;;;;5029448;28;20053;-67
2021/09/13 02:28:21;;;;;;;7.82;5.40;;;14.10;99.90;;;;;;5027332;28;20472;-68
2021/09/13 02:30:48;;;;;;;7.10;5.20;;;14.00;99.90;;;;;;5028838;28;20076;-68
2021/09/13 02:33:18;;;;;;;12.18;5.53;;;14.00;99.90;;;;;;5027176;28;20033;-68
2021/09/13 02:35:46;;;;;;;8.00;5.75;;;14.00;99.90;;;;;;5028317;28;20451;-69
2021/09/13 02:38:14;;;;;;;7.97;5.80;;;13.90;99.90;;;;;;5011137;28;20129;-68
2021/09/13 02:40:42;;;;;;;8.75;5.30;;;13.90;99.90;;;;;;5027532;28;20076;-68
2021/09/13 02:43:10;;;;;;;8.48;5.57;;;13.90;99.90;;;;;;5027812;28;20554;-67
2021/09/13 02:45:37;;;;;;;7.75;5.65;;;13.90;99.90;;;;;;5026622;28;20117;-68
2021/09/13 02:48:06;;;;;;;7.88;5.93;;;13.90;99.90;;;;;;5011528;28;20583;-70
2021/09/13 02:50:34;;;;;;;9.60;5.97;;;13.80;99.90;;;;;;5025910;28;20385;-68
2021/09/13 02:53:03;;;;;;;9.02;5.88;;;13.80;99.90;;;;;;5027479;28;20141;-67
2021/09/13 02:55:33;;;;;;;7.75;5.50;;;13.90;99.90;;;;;;5010665;28;20060;-69
2021/09/13 02:58:00;;;;;;;8.90;6.43;;;13.90;99.90;;;;;;5028144;28;20056;-68
2021/09/13 03:00:29;;;;;;;8.30;5.97;;;13.90;99.90;;;;;;5026958;28;20054;-68
2021/09/13 03:03:02;;;;;;;9.20;5.35;;;13.80;99.90;;;;;;5011910;28;20088;-68
2021/09/13 03:05:29;;;;;;;11.15;5.85;;;13.80;99.90;;;;;;5010461;28;20048;-68
2021/09/13 03:08:01;;;;;;;;;;;13.80;99.90;;;;;;4996733;28;20092;-68
2021/09/13 03:10:30;;;;;;;9.52;5.72;;;13.80;99.90;;;;;;5006658;28;20130;-68
2021/09/13 03:12:58;;;;;;;9.75;5.43;;;13.90;99.90;;;;;;5010197;28;20044;-67
2021/09/13 03:15:25;;;;;;;8.50;5.90;;;13.90;99.90;;;;;;5026940;28;20052;-68
2021/09/13 03:17:54;;;;;;;7.80;5.63;;;13.90;99.90;;;;;;5009405;28;20144;-67
2021/09/13 03:20:22;;;;;;;9.07;5.90;;;13.90;99.90;;;;;;5006500;28;20072;-67
2021/09/13 03:22:50;;;;;;;9.38;5.72;;;13.90;99.90;;;;;;5023756;28;20048;-67
2021/09/13 03:25:18;;;;;;;8.45;5.53;;;13.90;99.90;;;;;;5001915;28;20481;-67
2021/09/13 03:27:46;;;;;;;7.32;5.32;;;13.90;99.90;;;;;;5043598;28;20036;-67
2021/09/13 03:30:14;;;;;;;7.50;5.50;;;13.80;99.90;;;;;;5026296;28;20041;-67
2021/09/13 03:32:44;;;;;;;9.43;5.97;;;13.80;99.90;;;;;;5025982;28;20046;-67
2021/09/13 03:35:12;;;;;;;9.98;5.65;;;13.80;99.90;;;;;;5008950;28;20434;-67
2021/09/13 03:37:41;;;;;;;8.15;5.32;;;13.80;99.90;;;;;;5005423;28;20058;-67
2021/09/13 03:40:09;;;;;;;7.00;5.38;;;13.80;99.90;;;;;;5026775;28;20044;-67
2021/09/13 03:42:38;;;;;;;7.10;5.35;;;13.70;99.90;;;;;;5009554;28;20052;-67
2021/09/13 03:45:06;;;;;;;8.80;6.57;;;13.70;99.90;;;;;;5026605;28;20041;-67
2021/09/13 03:47:49;;;;;;;10.48;7.43;;;13.70;99.90;;;;;;5028719;28;20408;-67
2021/09/13 03:50:17;;;;;;;11.68;8.63;;;13.60;99.90;;;;;;5026147;28;20095;-67
2021/09/13 03:52:46;;;;;;;9.73;7.97;;;13.70;99.90;;;;;;5027355;28;20451;-67
2021/09/13 03:55:15;;;;;;;8.65;5.78;;;13.60;99.90;;;;;;5011873;28;20504;-67
2021/09/13 03:57:42;;;;;;;8.30;5.68;;;13.60;99.90;;;;;;5020288;28;20517;-67
2021/09/13 04:00:10;;;;;;;9.55;6.65;;;13.60;99.90;;;;;;4994403;28;20046;-68
2021/09/13 04:02:43;;;;;;;19.30;13.35;;;13.60;99.90;;;;;;5030043;28;20038;-68
2021/09/13 04:05:17;;;;;;;10.95;8.40;;;13.60;99.90;;;;;;5029800;28;20442;-68
2021/09/13 04:10:40;;;;;;;10.18;6.43;;;13.50;99.90;;;;;;5033067;28;20381;-68
2021/09/13 04:13:28;;;;;;;10.25;7.32;;;13.50;99.90;;;;;;5030694;28;20037;-68
2021/09/13 04:16:08;;;;;;;15.27;10.75;;;13.50;99.90;;;;;;5012391;28;20053;-68
2021/09/13 04:18:54;;;;;;;12.65;8.05;;;13.50;99.90;;;;;;5029995;28;20404;-68
2021/09/13 04:21:40;;;;;;;11.15;7.85;;;13.50;99.90;;;;;;5019535;28;20124;-68
2021/09/13 04:24:28;;;;;;;10.50;7.28;;;13.50;99.90;;;;;;5030224;28;20092;-68
2021/09/13 04:27:14;;;;;;;8.90;6.75;;;13.50;99.90;;;;;;5017808;28;20149;-68
2021/09/13 04:30:06;;;;;;;9.98;7.50;;;13.40;99.90;;;;;;5035137;28;20503;-68
2021/09/13 04:32:53;;;;;;;13.18;10.40;;;13.40;99.90;;;;;;5032200;28;20116;-67
2021/09/13 04:35:32;;;;;;;12.65;8.75;;;13.40;99.90;;;;;;5029777;28;20059;-67
2021/09/13 04:38:25;;;;;;;9.60;6.78;;;13.40;99.90;;;;;;5024702;28;20061;-67
2021/09/13 04:41:02;;;;;;;8.32;6.28;;;13.40;99.90;;;;;;5048802;28;20461;-68
2021/09/13 04:43:53;;;;;;;8.68;5.93;;;13.40;99.90;;;;;;5012709;28;20068;-68
2021/09/13 04:46:41;;;;;;;7.70;5.80;;;13.40;99.90;;;;;;5013928;28;20045;-68
2021/09/13 04:49:24;;;;;;;8.63;5.95;;;13.40;99.90;;;;;;4996288;28;20082;-68
2021/09/13 04:51:57;;;;;;;10.73;6.80;;;13.40;99.90;;;;;;4995252;28;20061;-68
2021/09/13 04:54:37;;;;;;;10.93;6.75;;;13.40;99.90;;;;;;5015561;28;20538;-68
2021/09/13 04:57:05;;;;;;;9.88;6.57;;;13.40;99.90;;;;;;4983502;28;20173;-68
2021/09/13 04:59:33;;;;;;;11.10;7.60;;;13.40;99.90;;;;;;4999271;28;20045;-68
2021/09/13 05:02:00;;;;;;;9.40;7.00;;;13.40;99.90;;;;;;4992305;28;20144;-68
2021/09/13 05:04:28;;;;;;;12.73;6.13;;;13.50;99.90;;;;;;4998682;28;20053;-68
2021/09/13 05:06:56;;;;;;;9.35;6.43;;;13.50;99.90;;;;;;4993366;28;20130;-68
2021/09/13 05:09:23;;;;;;;8.65;5.97;;;13.60;99.90;;;;;;5019703;28;20045;-68
2021/09/13 05:11:51;;;;;;;12.10;6.95;;;13.60;99.90;;;;;;4999033;28;20045;-68
2021/09/13 05:14:22;;;;;;;9.63;6.03;;;13.60;99.90;;;;;;5002731;28;20603;-68
2021/09/13 05:16:51;;;;;;;11.55;5.70;;;13.70;99.90;;;;;;4971631;28;20145;-69
2021/09/13 05:19:22;;;;;;;9.27;6.07;;;13.70;99.90;;;;;;4968781;28;20050;-68
2021/09/13 05:21:49;;;;;;;8.48;6.03;;;13.80;99.90;;;;;;5021740;28;20071;-68
2021/09/13 05:24:18;;;;;;;10.65;5.80;;;13.90;99.90;;;;;;4994219;28;20052;-69
2021/09/13 05:26:51;;;;;;;8.10;5.63;;;13.90;99.90;;;;;;5029304;28;20072;-67
2021/09/13 05:29:18;;;;;;;9.82;6.03;;;13.90;99.90;;;;;;5031371;28;20432;-68
2021/09/13 05:31:46;;;;;;;10.00;5.85;;;14.00;99.90;;;;;;5028933;28;20046;-68
2021/09/13 05:34:14;;;;;;;9.52;5.93;;;14.10;99.90;;;;;;5027657;28;20495;-68
2021/09/13 05:36:42;;;;;;;7.90;5.90;;;14.30;99.90;;;;;;5012657;28;20140;-68
2021/09/13 05:39:11;;;;;;;8.07;5.53;;;14.30;99.90;;;;;;5027811;28;20419;-68
2021/09/13 05:41:51;;;;;;;11.25;5.40;;;14.50;99.90;;;;;;5038496;28;20049;-68
2021/09/13 05:44:22;;;;;;;7.45;4.78;;;14.60;99.90;;;;;;5030351;28;20132;-68
2021/09/13 05:46:52;;;;;;;8.93;6.15;;;14.70;99.90;;;;;;5018463;28;20075;-68
2021/09/13 05:49:19;;;;;;;9.43;5.53;;;14.70;99.90;;;;;;5028787;28;20554;-68
2021/09/13 05:51:52;;;;;;;7.15;5.10;;;14.70;99.90;;;;;;5026931;28;20041;-68
2021/09/13 05:54:34;;;;;;;10.63;6.07;;;14.90;99.90;;;;;;5029390;28;20049;-68
2021/09/13 05:57:01;;;;;;;10.57;6.03;;;14.90;99.90;;;;;;5027902;28;20045;-68
2021/09/13 05:59:28;;;;;;;10.25;5.80;;;15.00;99.90;;;;;;5028944;28;20123;-68
2021/09/13 06:02:03;;;;;;;14.10;7.78;;;15.00;99.90;;;;;;5028440;28;20433;-67
2021/09/13 06:04:32;;;;;;;9.32;6.32;;;15.00;99.90;;;;;;5028499;28;20073;-67
2021/09/13 06:07:04;;;;;;;10.80;6.55;;;15.10;99.90;;;;;;5026327;28;20037;-67
2021/09/13 06:09:33;;;;;;;9.75;6.72;;;15.10;99.90;;;;;;5029989;28;20411;-68
2021/09/13 06:12:00;;;;;;;10.13;6.30;;;15.20;99.90;;;;;;5036668;28;20516;-68
2021/09/13 06:14:37;;;;;;;8.88;6.38;;;15.20;99.90;;;;;;5027288;28;20099;-68
2021/09/13 06:17:04;;;;;;;8.52;5.97;;;15.30;99.90;;;;;;5020609;28;20077;-68
2021/09/13 06:19:38;;;;;;;9.82;5.85;;;15.40;99.90;;;;;;5003371;28;20057;-68
2021/09/13 06:22:05;;;;;;;8.43;5.40;;;15.50;99.90;;;;;;5027067;28;20053;-68
2021/09/13 06:24:33;;;;;;;9.15;6.10;;;15.60;99.90;;;;;;5010369;28;20049;-68
2021/09/13 06:27:01;;;;;;;10.13;6.70;;;15.70;99.90;;;;;;5026485;28;20045;-70
2021/09/13 06:29:28;;;;;;;10.27;6.43;;;15.70;99.90;;;;;;5025611;28;20038;-68
2021/09/13 06:31:56;;;;;;;9.25;6.10;;;15.80;99.90;;;;;;5025349;28;20045;-68
2021/09/13 06:34:24;;;;;;;12.27;8.00;;;15.80;99.90;;;;;;5028474;28;20124;-68
2021/09/13 06:36:51;;;;;;;16.58;9.82;;;15.90;99.90;;;;;;5026857;28;20045;-68
2021/09/13 06:39:19;;;;;;;11.30;7.45;;;15.90;99.90;;;;;;5043078;28;20041;-68
2021/09/13 06:41:47;;;;;;;10.52;6.85;;;15.90;99.90;;;;;;5024147;28;20081;-68
2021/09/13 06:44:25;;;;;;;10.57;6.40;;;15.90;99.90;;;;;;5020719;28;20052;-68
2021/09/13 06:47:04;;;;;;;12.13;6.60;;;16.00;99.90;;;;;;5028819;28;20092;-68
2021/09/13 06:49:33;;;;;;;13.30;6.18;;;16.10;99.90;;;;;;5026539;28;20048;-68
2021/09/13 06:52:02;;;;;;;12.52;5.63;;;16.20;99.90;;;;;;5012295;28;20439;-67
2021/09/13 06:54:30;;;;;;;10.48;6.63;;;16.20;99.90;;;;;;5026060;28;20045;-67
2021/09/13 06:57:00;;;;;;;9.88;6.20;;;16.30;99.90;;;;;;5000907;28;20422;-67
2021/09/13 06:59:27;;;;;;;8.85;6.15;;;16.30;99.90;;;;;;5029311;28;20136;-67
2021/09/13 07:01:54;;;;;;;8.25;6.32;;;16.40;99.90;;;;;;5024552;28;20045;-67
2021/09/13 07:04:24;;;;;;;10.73;5.68;;;16.40;99.90;;;;;;5028543;28;20041;-68
2021/09/13 07:06:52;;;;;;;13.02;6.88;;;16.40;99.90;;;;;;5022457;28;20108;-69
2021/09/13 07:09:20;;;;;;;8.77;6.28;;;16.50;99.90;;;;;;5019583;28;20049;-69
2021/09/13 07:11:48;;;;;;;8.35;6.05;;;16.60;99.90;;;;;;5010582;28;20149;-67
2021/09/13 07:14:17;;;;;;;8.05;6.05;;;16.80;99.90;;;;;;5026289;28;20034;-67
2021/09/13 07:16:44;;;;;;;10.55;6.32;;;16.90;99.90;;;;;;5026316;28;20079;-68
2021/09/13 07:19:12;;;;;;;9.90;6.45;;;17.00;99.90;;;;;;5025609;28;20045;-68
2021/09/13 07:21:39;;;;;;;15.30;6.43;;;17.00;99.90;;;;;;5026904;28;20041;-67
2021/09/13 07:24:07;;;;;;;11.73;6.75;;;17.10;99.90;;;;;;5025877;28;20426;-67
2021/09/13 07:26:35;;;;;;;8.07;5.40;;;17.20;99.90;;;;;;5028886;28;20479;-68
2021/09/13 07:29:07;;;;;;;12.52;6.70;;;17.30;99.90;;;;;;5028689;28;20034;-68
2021/09/13 07:31:35;;;;;;;11.27;6.72;;;17.50;99.90;;;;;;5027870;28;20509;-68
2021/09/13 07:34:02;;;;;;;12.93;7.22;;;17.50;99.90;;;;;;5027938;28;20041;-67
2021/09/13 07:36:30;;;;;;;10.55;6.55;;;17.60;99.90;;;;;;5025310;28;20073;-67
2021/09/13 07:39:17;;;;;;;9.93;6.20;;;17.60;99.90;;;;;;5007512;28;20057;-68
2021/09/13 07:41:44;;;;;;;9.65;6.40;;;17.60;99.90;;;;;;5021936;28;20056;-68
2021/09/13 07:44:12;;;;;;;10.48;6.53;;;17.80;99.90;;;;;;5014298;28;20153;-69
2021/09/13 07:46:39;;;;;;;11.20;6.18;;;18.10;99.90;;;;;;5019490;28;20344;-69
2021/09/13 07:49:07;;;;;;;11.10;5.78;;;18.30;99.90;;;;;;5025037;28;20061;-69
2021/09/13 07:51:34;;;;;;;12.60;6.90;;;18.50;99.90;;;;;;5023389;28;20060;-68
2021/09/13 07:54:02;;;;;;;9.60;6.60;;;18.70;99.90;;;;;;5006784;28;20045;-68
2021/09/13 07:56:29;;;;;;;11.40;6.47;;;18.80;99.90;;;;;;5000256;28;20415;-68
2021/09/13 07:58:57;;;;;;;12.93;7.05;;;18.90;99.90;;;;;;5025086;28;20045;-68
2021/09/13 08:01:24;;;;;;;10.05;6.75;;;19.00;99.90;;;;;;5026034;28;20048;-69
2021/09/13 08:03:51;;;;;;;10.40;6.88;;;19.00;99.90;;;;;;5023551;28;20049;-68
2021/09/13 08:06:19;;;;;;;12.55;6.28;;;19.10;99.90;;;;;;5028511;28;20073;-69
2021/09/13 08:08:46;;;;;;;9.90;6.07;;;19.20;99.90;;;;;;5022117;28;20471;-69
2021/09/13 08:11:14;;;;;;;10.13;6.50;;;19.30;99.90;;;;;;5033155;28;20042;-69
2021/09/13 08:13:43;;;;;;;12.40;7.22;;;19.40;99.90;;;;;;5026870;28;20038;-69
2021/09/13 08:16:11;;;;;;;9.55;6.47;;;19.50;99.90;;;;;;5026292;28;20042;-69
2021/09/13 08:18:41;;;;;;;13.85;7.53;;;19.60;99.90;;;;;;5028795;28;20057;-69
2021/09/13 08:21:13;;;;;;;8.63;6.22;;;19.50;99.90;;;;;;5024265;28;20057;-69
2021/09/13 08:23:40;;;;;;;8.38;5.95;;;19.50;99.90;;;;;;5020403;28;20065;-68
2021/09/13 08:26:07;;;;;;;10.25;7.43;;;19.60;99.90;;;;;;5025982;28;20524;-68
2021/09/13 08:28:38;;;;;;;10.57;6.30;;;19.80;99.90;;;;;;5026913;28;20395;-68
2021/09/13 08:31:07;;;;;;;8.38;5.70;;;19.90;99.90;;;;;;5015277;28;20500;-68
2021/09/13 08:33:35;;;;;;;7.80;5.20;;;20.10;99.90;;;;;;5016080;28;20055;-68
2021/09/13 08:36:04;;;;;;;8.35;5.53;;;20.30;99.90;;;;;;5026101;28;20484;-68
2021/09/13 08:38:31;;;;;;;12.48;6.50;;;20.50;99.90;;;;;;5026505;28;20136;-68
2021/09/13 08:40:59;;;;;;;13.85;7.00;;;20.50;99.90;;;;;;5019612;28;20038;-67
2021/09/13 08:43:28;;;;;;;13.18;6.90;;;20.60;99.90;;;;;;5025979;28;20041;-67
2021/09/13 08:46:05;;;;;;;8.43;6.05;;;20.50;99.90;;;;;;5026213;28;20511;-68
2021/09/13 08:48:46;;;;;;;12.18;6.63;;;20.60;99.90;;;;;;5011780;28;20053;-68
2021/09/13 08:53:46;;;;;;;10.38;6.82;;;20.80;99.90;;;;;;5030580;28;20460;-68
2021/09/13 08:56:16;;;;;;;9.75;6.72;;;20.80;99.90;;;;;;5030560;28;20045;-68
2021/09/13 08:58:45;;;;;;;12.05;6.40;;;20.80;99.90;;;;;;5030354;28;20419;-68
2021/09/13 09:01:13;;;;;;;10.02;5.68;;;20.80;99.90;;;;;;5029621;28;20041;-68
2021/09/13 09:03:43;;;;;;;9.65;5.82;;;21.00;99.90;;;;;;5030648;28;20605;-68
2021/09/13 09:06:28;;;;;;;10.27;5.55;;;21.20;99.90;;;;;;5028651;28;20095;-68
2021/09/13 09:09:00;;;;;;;12.75;6.90;;;21.40;99.90;;;;;;5029232;28;20479;-68
2021/09/13 09:12:00;;;;;;;7.93;5.40;;;21.50;99.90;;;;;;5032632;28;20099;-68
2021/09/13 09:14:48;;;;;;;7.00;4.55;;;21.50;99.90;;;;;;5029965;28;20483;-68
2021/09/13 09:17:26;;;;;;;9.48;4.93;;;21.60;99.90;;;;;;5015133;28;20455;-68
2021/09/13 09:20:01;;;;;;;8.85;4.50;;;21.70;99.90;;;;;;5028257;28;20049;-68
2021/09/13 09:22:31;;;;;;;10.93;6.13;;;21.90;99.90;;;;;;5029008;28;20577;-68
2021/09/13 09:24:59;;;;;;;8.50;4.97;;;21.90;99.90;;;;;;5028964;28;20045;-68
2021/09/13 09:27:27;;;;;;;8.18;5.05;;;21.90;99.90;;;;;;5028639;28;20363;-68
2021/09/13 09:29:55;;;;;;;7.10;3.92;;;22.00;99.90;;;;;;5025750;28;20463;-68
2021/09/13 09:32:27;;;;;;;7.30;4.10;;;22.10;99.90;;;;;;5030437;28;20045;-68
2021/09/13 09:34:55;;;;;;;7.20;3.30;;;22.30;99.90;;;;;;5026364;28;20033;-68
2021/09/13 09:37:26;;;;;;;6.55;2.90;;;22.50;99.90;;;;;;5029914;28;20045;-68
2021/09/13 09:40:00;;;;;;;5.78;2.45;;;22.70;99.90;;;;;;5029114;28;20103;-68
2021/09/13 09:42:31;;;;;;;4.80;2.17;;;22.70;99.90;;;;;;5024697;28;20056;-70
2021/09/13 09:45:18;;;;;;;3.63;2.10;;;23.00;99.90;;;;;;5030682;28;20049;-68
2021/09/13 09:48:04;;;;;;;5.32;2.35;;;23.20;99.90;;;;;;5030973;28;20041;-68
2021/09/13 09:50:33;;;;;;;5.82;2.35;;;23.50;99.90;;;;;;5028058;28;20069;-68
2021/09/13 09:53:21;;;;;;;4.00;2.22;;;23.50;99.90;;;;;;5029628;28;20042;-68
2021/09/13 09:55:57;;;;;;;5.63;2.40;;;23.70;99.90;;;;;;5024719;28;20071;-68
2021/09/13 09:58:24;;;;;;;5.40;2.58;;;24.00;99.90;;;;;;5021598;28;20045;-68
2021/09/13 10:00:52;;;;;;;4.93;2.83;;;24.30;99.90;;;;;;5029980;28;20087;-68
2021/09/13 10:03:30;;;;;;;5.25;2.53;;;24.40;99.90;;;;;;5011154;28;20053;-68
2021/09/13 10:05:58;;;;;;;4.70;2.17;;;24.60;99.90;;;;;;5028501;28;20038;-68
2021/09/13 10:08:26;;;;;;;7.00;2.60;;;24.60;99.90;;;;;;5029540;28;20049;-68
2021/09/13 10:10:54;;;;;;;5.35;3.28;;;24.90;99.90;;;;;;5040711;28;20042;-68
2021/09/13 10:13:21;;;;;;;4.63;2.90;;;25.00;99.90;;;;;;5028112;28;20512;-68
2021/09/13 10:15:50;;;;;;;4.30;2.47;;;25.30;99.90;;;;;;5029229;28;20132;-68
2021/09/13 10:18:18;;;;;;;7.10;2.45;;;25.50;99.90;;;;;;5025188;28;20052;-68
2021/09/13 10:20:46;;;;;;;5.75;2.80;;;25.70;99.90;;;;;;5022664;28;20176;-68
2021/09/13 10:23:15;;;;;;;6.00;2.80;;;25.60;99.90;;;;;;5027108;28;20041;-68
2021/09/13 10:25:43;;;;;;;5.15;2.78;;;25.20;99.90;;;;;;5029069;28;20049;-68
2021/09/13 10:28:11;;;;;;;5.63;2.60;;;24.90;99.90;;;;;;5028572;28;20045;-68
2021/09/13 10:30:58;;;;;;;3.47;2.30;;;24.50;99.90;;;;;;5030131;28;20099;-68
2021/09/13 10:34:18;;;;;;;3.90;2.40;;;24.40;99.90;;;;;;5015631;28;20546;-68
2021/09/13 10:37:08;;;;;;;4.03;2.17;;;24.90;99.90;;;;;;4997695;28;20488;-68
2021/09/13 10:39:54;;;;;;;5.85;2.53;;;25.30;99.90;;;;;;5023534;28;20054;-68
2021/09/13 10:42:28;;;;;;;4.18;2.63;;;25.50;99.90;;;;;;5026888;28;20496;-68
2021/09/13 10:45:20;;;;;;;3.60;2.70;;;25.80;99.90;;;;;;5028342;28;20045;-68
2021/09/13 10:47:49;;;;;;;;;;;26.10;99.90;;;;;;5019919;28;20128;-68
2021/09/13 10:50:32;;;;;;;3.67;2.10;;;26.20;99.90;;;;;;5026887;28;19931;-68
2021/09/13 10:53:02;;;;;;;4.35;2.20;;;26.20;99.90;;;;;;5019734;28;20037;-68
2021/09/13 10:56:15;;;;;;;3.92;2.10;;;26.10;99.90;;;;;;5029125;28;20049;-68
2021/09/13 10:58:50;;;;;;;4.13;2.40;;;26.00;99.90;;;;;;5026245;28;20057;-68
2021/09/13 11:01:21;;;;;;;5.22;2.05;;;25.90;99.90;;;;;;5015273;28;20041;-68
2021/09/13 11:03:51;;;;;;;3.78;2.40;;;26.20;99.90;;;;;;5026857;28;20059;-69
2021/09/13 11:06:18;;;;;;;4.13;2.30;;;26.50;99.90;;;;;;5016779;28;20160;-68
2021/09/13 11:08:55;;;;;;;5.00;2.08;;;26.80;99.90;;;;;;5026789;28;20609;-68
2021/09/13 11:11:34;;;;;;;5.00;2.55;;;27.00;99.90;;;;;;5027640;28;20061;-68
2021/09/13 11:14:20;;;;;;;4.32;2.08;;;26.90;99.90;;;;;;5028441;28;20057;-69
2021/09/13 11:17:02;;;;;;;3.28;2.00;;;27.10;99.90;;;;;;5022787;28;20045;-68
2021/09/13 11:19:32;;;;;;;4.50;2.10;;;27.50;99.90;;;;;;5027306;28;20056;-69
2021/09/13 11:22:05;;;;;;;3.38;2.03;;;27.90;99.90;;;;;;5025627;28;20037;-68
2021/09/13 11:24:39;;;;;;;3.85;2.33;;;28.10;99.90;;;;;;5018495;28;20357;-68
2021/09/13 11:27:13;;;;;;;4.20;2.22;;;27.90;99.90;;;;;;5026276;28;20202;-69
2021/09/13 11:29:42;;;;;;;6.53;3.75;;;27.80;99.90;;;;;;5024267;28;20064;-68
2021/09/13 11:32:12;;;;;;;7.18;3.55;;;28.10;99.90;;;;;;5010586;28;20508;-68
2021/09/13 11:34:50;;;;;;;4.75;2.58;;;28.80;99.90;;;;;;5025658;28;20047;-68
2021/09/13 11:37:26;;;;;;;7.65;2.63;;;28.70;99.90;;;;;;5026233;28;20436;-68
2021/09/13 11:40:14;;;;;;;4.25;2.38;;;28.50;99.90;;;;;;5026556;28;20037;-68
2021/09/13 11:42:42;;;;;;;6.07;2.70;;;28.60;99.90;;;;;;5027841;28;20483;-68
2021/09/13 11:45:16;;;;;;;4.43;2.42;;;28.80;99.90;;;;;;5025941;28;20048;-68
2021/09/13 11:48:03;;;;;;;6.72;2.90;;;29.10;99.90;;;;;;5028893;28;20049;-68
2021/09/13 11:50:35;;;;;;;5.25;2.60;;;29.10;99.90;;;;;;5015640;28;20045;-68
2021/09/13 11:53:13;;;;;;;4.57;2.90;;;29.60;99.90;;;;;;5027345;28;20053;-68
2021/09/13 11:55:41;;;;;;;4.20;2.25;;;29.90;99.90;;;;;;5026744;28;20422;-68
2021/09/13 11:58:13;;;;;;;5.75;2.63;;;30.20;99.90;;;;;;5027750;28;20044;-68
2021/09/13 12:00:40;;;;;;;6.40;3.20;;;30.20;99.90;;;;;;5016213;28;20042;-68
2021/09/13 12:03:09;;;;;;;4.63;2.60;;;30.30;99.90;;;;;;5028619;28;20069;-68
2021/09/13 12:05:39;;;;;;;4.75;2.22;;;30.60;99.90;;;;;;5027974;28;20464;-68
2021/09/13 12:08:15;;;;;;;5.20;2.75;;;30.70;99.90;;;;;;5027929;28;20437;-68
2021/09/13 12:10:43;;;;;;;3.95;2.53;;;30.90;99.90;;;;;;5022772;28;20159;-68
2021/09/13 12:13:13;;;;;;;6.43;4.65;;;31.30;99.90;;;;;;5025274;28;20353;-68
2021/09/13 12:15:49;;;;;;;5.72;3.10;;;31.30;99.90;;;;;;5026711;28;20045;-68
2021/09/13 12:18:18;;;;;;;4.97;2.08;;;31.60;99.90;;;;;;5028140;28;20051;-69
2021/09/13 12:20:47;;;;;;;4.43;2.00;;;31.70;99.90;;;;;;5028428;28;20124;-69
2021/09/13 12:23:27;;;;;;;4.05;2.33;;;32.10;99.90;;;;;;5029717;28;20158;-68
2021/09/13 12:26:06;;;;;;;4.70;2.60;;;32.00;98.80;;;;;;5031295;28;20151;-69
2021/09/13 12:28:35;;;;;;;7.10;2.60;;;31.80;98.30;;;;;;5027483;28;20060;-68
2021/09/13 12:31:05;;;;;;;4.65;3.25;;;32.00;98.10;;;;;;5015582;28;20069;-67
2021/09/13 12:33:40;;;;;;;4.90;2.53;;;31.50;98.40;;;;;;5019592;28;20037;-67
2021/09/13 12:36:26;;;;;;;5.10;2.35;;;32.10;97.60;;;;;;5030947;28;20091;-67
2021/09/13 12:38:58;;;;;;;8.18;6.00;;;32.60;97.00;;;;;;5032975;28;20478;-68
2021/09/13 12:41:40;;;;;;;7.85;5.70;;;33.10;96.10;;;;;;5033429;28;20115;-68
2021/09/13 12:44:20;;;;;;;4.95;2.58;;;33.70;94.70;;;;;;5029800;28;20073;-68
2021/09/13 12:46:49;;;;;;;3.92;2.20;;;34.00;94.20;;;;;;5043810;28;20132;-68
2021/09/13 12:49:16;;;;;;;4.72;2.67;;;34.30;93.40;;;;;;5025043;28;20132;-68
2021/09/13 12:52:12;;;;;;;4.43;2.90;;;34.30;92.90;;;;;;5033586;28;20049;-68
2021/09/13 12:54:39;;;;;;;14.77;8.10;;;34.80;91.90;;;;;;5018730;28;20158;-68
2021/09/13 12:57:07;;;;;;;5.25;2.60;;;35.00;91.70;;;;;;5029512;28;20049;-68
2021/09/13 12:59:34;;;;;;;4.88;2.20;;;35.20;91.30;;;;;;5032398;28;20073;-68
2021/09/13 13:02:13;;;;;;;4.18;2.38;;;35.60;90.50;;;;;;5031967;28;20042;-68
2021/09/13 13:04:41;;;;;;;4.53;2.10;;;36.10;88.10;;;;;;5019865;28;20121;-68
2021/09/13 13:07:11;;;;;;;4.18;2.75;;;36.50;86.30;;;;;;5030348;28;20504;-68
2021/09/13 13:09:39;;;;;;;4.03;2.00;;;37.00;83.80;;;;;;5033825;28;20083;-68
2021/09/13 13:12:07;;;;;;;3.80;2.35;;;37.20;82.70;;;;;;5033853;28;20096;-68
2021/09/13 13:14:34;;;;;;;6.25;4.10;;;37.10;82.00;;;;;;5026031;28;20088;-68